Time;durP1;ratioP1;P1;durP2;ratioP2;P2;SDS_P1;SDS_P2;PMS_P1;PMS_P2;Temp;Humidity;BMP_temperature;BMP_pressure;BME280_temperature;BME280_humidity;BME280_pressure;Samples;Min_cycle;Max_cycle;Signal;HPM_P1;HPM_P2
2022/11/19 00:01:06;;;;;;;0.60;0.45;;;;;;;11.54;100.00;93655.38;5010387;28;20204;-75
2022/11/19 00:03:35;;;;;;;1.58;0.75;;;;;;;11.52;100.00;93653.00;5010736;28;20205;-74
2022/11/19 00:06:05;;;;;;;1.90;0.68;;;;;;;11.46;100.00;93635.47;5010306;28;20241;-75
2022/11/19 00:08:32;;;;;;;1.00;0.50;;;;;;;11.47;100.00;93617.28;5010319;28;20205;-75
2022/11/19 00:11:04;;;;;;;0.30;0.30;;;;;;;11.45;100.00;93620.34;5023184;28;20200;-74
2022/11/19 00:13:30;;;;;;;1.27;0.70;;;;;;;11.63;100.00;93626.09;5019360;28;20212;-74
2022/11/19 00:16:02;;;;;;;2.58;0.60;;;;;;;11.57;100.00;93638.41;5016050;28;20295;-74
2022/11/19 00:18:29;;;;;;;0.30;0.30;;;;;;;11.62;100.00;93646.22;5018924;28;20205;-75
2022/11/19 00:21:01;;;;;;;0.50;0.50;;;;;;;11.63;100.00;93659.44;5008943;28;20311;-75
2022/11/19 00:23:28;;;;;;;0.50;0.50;;;;;;;11.54;99.32;93649.94;5009178;28;20201;-75
2022/11/19 00:25:55;;;;;;;0.95;0.45;;;;;;;11.45;100.00;93655.59;5027258;28;20785;-76
2022/11/19 00:28:21;;;;;;;0.30;0.30;;;;;;;11.43;100.00;93655.16;5018041;28;20251;-76
2022/11/19 00:30:48;;;;;;;1.77;0.50;;;;;;;11.42;100.00;93647.38;5008966;28;20607;-75
2022/11/19 00:33:16;;;;;;;0.30;0.30;;;;;;;11.42;99.80;93641.97;5038293;28;20239;-76
2022/11/19 00:35:43;;;;;;;0.40;0.40;;;;;;;11.37;98.38;93645.72;5054258;28;20377;-76
2022/11/19 00:38:10;;;;;;;2.75;0.90;;;;;;;11.36;100.00;93650.38;5069126;28;20203;-76
2022/11/19 00:40:36;;;;;;;0.57;0.50;;;;;;;11.34;100.00;93649.94;5068609;28;20215;-75
2022/11/19 00:45:49;;;;;;;0.30;0.30;;;;;;;11.21;100.00;93629.53;5048370;28;20658;-76
2022/11/19 00:48:17;;;;;;;0.60;0.60;;;;;;;11.28;100.00;93631.63;5050934;28;20208;-75
2022/11/19 00:50:43;;;;;;;0.70;0.47;;;;;;;11.22;100.00;93628.38;5068702;28;20256;-75
2022/11/19 00:53:10;;;;;;;0.50;0.50;;;;;;;11.29;99.90;93633.97;5052922;28;20211;-75
2022/11/19 00:55:37;;;;;;;0.40;0.40;;;;;;;11.22;100.00;93636.53;5047978;28;20208;-75
2022/11/19 00:58:04;;;;;;;0.40;0.25;;;;;;;11.30;97.42;93629.34;5048411;28;20227;-76
2022/11/19 01:00:31;;;;;;;1.40;0.80;;;;;;;11.37;95.65;93629.47;5048815;28;20210;-75
2022/11/19 01:02:58;;;;;;;0.30;0.30;;;;;;;11.32;95.91;93633.25;5048457;28;20659;-76
2022/11/19 01:05:26;;;;;;;0.40;0.40;;;;;;;11.34;95.04;93630.94;5049253;28;20618;-76
2022/11/19 01:07:53;;;;;;;0.30;0.30;;;;;;;11.53;92.86;93632.09;5048831;28;20239;-77
2022/11/19 01:10:19;;;;;;;0.30;0.30;;;;;;;11.62;91.66;93629.94;5049086;28;20199;-77
2022/11/19 01:15:27;;;;;;;0.30;0.30;;;;;;;11.76;90.22;93619.41;5048457;28;20196;-76
2022/11/19 01:17:54;;;;;;;0.20;0.20;;;;;;;11.77;89.95;93629.13;5048385;28;20265;-75
2022/11/19 01:20:20;;;;;;;1.00;0.47;;;;;;;11.78;90.08;93638.81;5048426;28;20265;-76
2022/11/19 01:22:49;;;;;;;0.65;0.50;;;;;;;11.85;89.85;93638.97;5048551;28;20257;-76
2022/11/19 01:25:15;;;;;;;0.85;0.32;;;;;;;11.80;89.87;93633.03;5048490;28;20211;-75
2022/11/19 01:27:42;;;;;;;0.30;0.30;;;;;;;11.81;89.25;93629.19;5047914;28;20321;-76
2022/11/19 01:30:10;;;;;;;0.85;0.32;;;;;;;11.74;90.09;93638.75;5048455;28;20207;-76
2022/11/19 01:32:37;;;;;;;0.20;0.20;;;;;;;11.81;89.26;93642.75;5047642;28;20262;-76
2022/11/19 01:35:05;;;;;;;0.20;0.20;;;;;;;11.73;90.09;93647.25;5047813;28;20211;-75
2022/11/19 01:37:31;;;;;;;0.30;0.30;;;;;;;11.66;90.49;93655.22;5047753;28;20208;-76
2022/11/19 01:39:59;;;;;;;0.30;0.30;;;;;;;11.63;89.91;93648.59;5047863;28;20223;-76
2022/11/19 01:45:23;;;;;;;0.30;0.30;;;;;;;11.52;90.73;93665.78;5050288;28;20210;-77
2022/11/19 01:47:51;;;;;;;0.40;0.40;;;;;;;11.37;92.17;93673.63;5056632;28;20246;-77
2022/11/19 01:50:18;;;;;;;0.50;0.50;;;;;;;11.26;93.18;93666.41;5053757;28;20198;-76
2022/11/19 01:52:45;;;;;;;1.38;0.50;;;;;;;11.06;95.07;93652.06;5055893;28;20200;-76
2022/11/19 01:55:13;;;;;;;0.40;0.40;;;;;;;10.84;96.70;93660.84;5048312;28;20261;-76
2022/11/19 01:57:41;;;;;;;0.88;0.40;;;;;;;10.66;98.25;93677.47;5047530;28;20273;-76
2022/11/19 02:00:08;;;;;;;0.80;0.52;;;;;;;10.55;99.64;93681.84;5048513;28;20212;-76
2022/11/19 02:02:35;;;;;;;1.05;0.73;;;;;;;10.53;99.84;93669.78;5048000;28;20577;-76
2022/11/19 02:05:03;;;;;;;0.35;0.35;;;;;;;10.54;100.00;93657.81;5047540;28;20442;-78
2022/11/19 02:07:33;;;;;;;0.95;0.75;;;;;;;10.34;100.00;93670.50;5048139;28;20231;-77
2022/11/19 02:10:02;;;;;;;0.40;0.40;;;;;;;10.25;100.00;93684.19;5048391;28;20211;-77
2022/11/19 02:12:42;;;;;;;1.23;0.55;;;;;;;10.18;100.00;93680.50;5048341;28;20886;-77
2022/11/19 02:15:39;;;;;;;0.98;0.52;;;;;;;10.12;100.00;93673.75;5058371;28;20209;-76
2022/11/19 02:18:32;;;;;;;0.68;0.60;;;;;;;10.17;100.00;93687.03;5047931;28;20678;-77
2022/11/19 02:21:19;;;;;;;0.82;0.63;;;;;;;10.23;100.00;93670.25;5050402;28;20249;-77
2022/11/19 02:24:09;;;;;;;0.57;0.57;;;;;;;10.18;100.00;93686.72;5052757;28;20214;-78
2022/11/19 02:27:15;;;;;;;1.75;1.00;;;;;;;9.99;100.00;93703.59;5051855;28;20231;-78
2022/11/19 02:30:03;;;;;;;0.47;0.47;;;;;;;10.05;100.00;93695.22;5051484;28;20203;-78
2022/11/19 02:32:33;;;;;;;1.60;0.70;;;;;;;9.98;100.00;93707.44;5058256;28;20322;-77
2022/11/19 02:35:07;;;;;;;0.38;0.38;;;;;;;10.03;100.00;93713.72;5057500;28;20257;-77
2022/11/19 02:37:42;;;;;;;1.20;0.80;;;;;;;10.01;100.00;93716.00;5059623;28;20194;-78
2022/11/19 02:40:15;;;;;;;5.40;0.82;;;;;;;9.84;100.00;93720.56;5055239;28;20214;-76
2022/11/19 02:42:51;;;;;;;0.98;0.77;;;;;;;9.76;100.00;93721.50;5061996;28;20458;-76
2022/11/19 02:45:24;;;;;;;1.00;0.95;;;;;;;9.79;100.00;93720.84;5053111;28;20249;-77
2022/11/19 02:47:56;;;;;;;0.63;0.63;;;;;;;9.87;100.00;93722.59;5051118;28;20219;-76
2022/11/19 02:50:28;;;;;;;1.05;0.80;;;;;;;9.83;100.00;93746.06;5057558;28;20203;-77
2022/11/19 02:52:55;;;;;;;0.95;0.90;;;;;;;9.83;100.00;93748.78;5070993;28;20203;-76
2022/11/19 02:55:23;;;;;;;0.57;0.50;;;;;;;9.80;100.00;93744.03;5051711;28;20722;-76
2022/11/19 02:57:55;;;;;;;0.82;0.65;;;;;;;9.73;100.00;93740.34;5051075;28;20208;-77
2022/11/19 03:05:59;;;;;;;0.70;0.70;;;;;;;9.54;100.00;93768.00;5006541;28;20207;-77
2022/11/19 03:08:26;;;;;;;1.13;0.80;;;;;;;9.55;100.00;93764.19;5050813;28;20227;-77
2022/11/19 03:11:05;;;;;;;1.15;0.82;;;;;;;9.45;100.00;93778.16;5051053;28;20284;-77
2022/11/19 03:16:42;;;;;;;0.88;0.77;;;;;;;9.39;100.00;93772.22;5057998;28;20243;-76
2022/11/19 03:19:20;;;;;;;0.90;0.68;;;;;;;9.38;100.00;93761.75;5071036;28;20199;-77
2022/11/19 03:21:54;;;;;;;1.27;0.98;;;;;;;9.39;100.00;93776.81;5071229;28;20210;-77
2022/11/19 03:24:28;;;;;;;1.10;0.88;;;;;;;9.27;100.00;93786.53;5051833;28;20238;-77
2022/11/19 03:27:00;;;;;;;0.98;0.77;;;;;;;9.23;100.00;93791.03;5051169;28;20326;-77
2022/11/19 03:29:31;;;;;;;2.33;1.23;;;;;;;9.23;100.00;93784.84;5050928;28;20239;-77
2022/11/19 03:32:04;;;;;;;1.10;0.73;;;;;;;9.25;100.00;93788.00;5049196;28;20235;-77
2022/11/19 03:34:33;;;;;;;0.80;0.80;;;;;;;9.23;100.00;93793.72;5050487;28;20594;-77
2022/11/19 03:37:03;;;;;;;0.68;0.60;;;;;;;9.33;100.00;93789.78;5049883;28;20211;-77
2022/11/19 03:39:30;;;;;;;1.85;1.50;;;;;;;9.13;100.00;93791.50;5060149;28;20616;-77
2022/11/19 03:41:57;;;;;;;1.05;0.93;;;;;;;9.03;100.00;93794.63;5053721;28;20604;-78
2022/11/19 03:44:29;;;;;;;4.65;1.27;;;;;;;9.04;100.00;93787.31;5050505;28;20248;-77
2022/11/19 03:47:00;;;;;;;1.48;1.05;;;;;;;9.05;100.00;93794.28;5049988;28;20234;-76
2022/11/19 03:49:33;;;;;;;1.45;1.17;;;;;;;9.01;100.00;93799.59;5049565;28;20675;-78
2022/11/19 03:52:06;;;;;;;1.88;1.10;;;;;;;8.90;100.00;93810.03;5069610;28;20207;-78
2022/11/19 03:54:33;;;;;;;2.65;1.25;;;;;;;8.92;100.00;93817.81;5069658;28;20203;-76
2022/11/19 03:57:01;;;;;;;2.22;1.02;;;;;;;8.77;100.00;93804.97;5070414;28;20480;-77
2022/11/19 03:59:28;;;;;;;5.43;1.50;;;;;;;8.74;100.00;93821.88;5070618;28;20199;-78
2022/11/19 04:01:58;;;;;;;6.10;1.20;;;;;;;8.72;100.00;93813.31;5061987;28;20227;-77
2022/11/19 04:04:37;;;;;;;1.67;1.00;;;;;;;8.66;100.00;93820.03;5049957;28;20211;-78
2022/11/19 04:07:11;;;;;;;0.88;0.73;;;;;;;8.53;100.00;93827.31;5049080;28;20227;-77
2022/11/19 04:09:39;;;;;;;0.70;0.70;;;;;;;8.43;100.00;93825.84;5052850;28;20199;-77
2022/11/19 04:12:07;;;;;;;2.22;1.20;;;;;;;8.45;100.00;93829.00;5058187;28;20671;-77
2022/11/19 04:14:34;;;;;;;1.40;0.80;;;;;;;8.58;100.00;93823.63;5049410;28;20691;-77
2022/11/19 04:17:01;;;;;;;1.58;1.23;;;;;;;8.49;100.00;93843.38;5049866;28;20208;-78
2022/11/19 04:19:28;;;;;;;2.65;1.35;;;;;;;8.58;100.00;93850.63;5050030;28;20257;-77
2022/11/19 04:21:55;;;;;;;1.42;1.20;;;;;;;8.52;100.00;93837.31;5060685;28;20248;-78
2022/11/19 04:24:23;;;;;;;1.50;1.13;;;;;;;8.58;100.00;93856.03;5050933;28;20226;-78
2022/11/19 04:26:50;;;;;;;3.00;1.42;;;;;;;8.60;100.00;93848.38;5049770;28;20234;-78
2022/11/19 04:29:16;;;;;;;2.15;1.20;;;;;;;8.65;100.00;93856.25;5049751;28;20204;-78
2022/11/19 04:31:43;;;;;;;4.63;1.10;;;;;;;8.59;100.00;93844.09;5049241;28;20207;-76
2022/11/19 04:34:10;;;;;;;1.95;1.30;;;;;;;8.58;100.00;93842.53;5049114;28;20235;-77
2022/11/19 04:36:39;;;;;;;2.47;1.05;;;;;;;8.55;100.00;93858.25;5049655;28;20211;-76
2022/11/19 04:39:06;;;;;;;1.42;1.20;;;;;;;8.61;100.00;93856.13;5049113;28;20662;-77
2022/11/19 04:41:34;;;;;;;3.20;2.25;;;;;;;8.59;100.00;93863.78;5049333;28;20204;-77
2022/11/19 04:44:01;;;;;;;4.22;2.97;;;;;;;8.60;100.00;93875.38;5049080;28;20207;-77
2022/11/19 04:46:54;;;;;;;10.32;2.60;;;;;;;8.55;100.00;93879.84;5049655;28;20211;-77
2022/11/19 04:49:21;;;;;;;3.85;2.13;;;;;;;8.59;100.00;93879.19;5048083;28;20204;-79
2022/11/19 04:51:47;;;;;;;3.40;2.00;;;;;;;8.58;100.00;93881.09;5062335;28;20206;-78
2022/11/19 04:54:14;;;;;;;3.25;2.03;;;;;;;8.55;100.00;93885.25;5060875;28;20213;-79
2022/11/19 04:56:42;;;;;;;3.13;1.92;;;;;;;8.49;100.00;93886.56;5050726;28;20222;-77
2022/11/19 04:59:09;;;;;;;3.63;2.35;;;;;;;8.52;100.00;93883.22;5049045;28;20208;-77
2022/11/19 05:01:36;;;;;;;3.35;2.00;;;;;;;8.42;100.00;93886.34;5048994;28;20211;-77
2022/11/19 05:04:03;;;;;;;3.78;2.50;;;;;;;8.40;100.00;93893.19;5048510;28;20203;-77
2022/11/19 05:06:29;;;;;;;4.30;2.20;;;;;;;8.39;100.00;93892.38;5049078;28;20601;-77
2022/11/19 05:08:56;;;;;;;4.90;2.95;;;;;;;8.47;100.00;93910.41;5048656;28;20242;-77
2022/11/19 05:11:23;;;;;;;3.10;2.17;;;;;;;8.37;100.00;93910.03;5048673;28;20211;-78
2022/11/19 05:13:51;;;;;;;2.80;2.05;;;;;;;8.28;100.00;93931.66;5049182;28;20211;-77
2022/11/19 05:16:18;;;;;;;4.82;2.53;;;;;;;8.38;100.00;93944.78;5048650;28;20203;-77
2022/11/19 05:18:45;;;;;;;3.25;2.40;;;;;;;8.32;100.00;93946.09;5048156;28;20219;-79
2022/11/19 05:21:11;;;;;;;6.53;3.28;;;;;;;8.46;100.00;93957.44;5062308;28;20246;-77
2022/11/19 05:23:38;;;;;;;6.20;2.63;;;;;;;8.37;100.00;93972.88;5049071;28;20211;-78
2022/11/19 05:26:05;;;;;;;6.80;3.28;;;;;;;8.37;100.00;93964.00;5048394;28;20258;-77
2022/11/19 05:28:32;;;;;;;3.30;2.10;;;;;;;8.31;100.00;93963.38;5048841;28;20235;-78
2022/11/19 05:31:01;;;;;;;4.03;2.95;;;;;;;8.12;100.00;93979.22;5062731;28;20569;-77
2022/11/19 05:33:27;;;;;;;4.07;2.78;;;;;;;8.16;100.00;93974.75;5061641;28;20300;-77
2022/11/19 05:35:54;;;;;;;5.80;2.75;;;;;;;8.34;100.00;93987.03;5055357;28;20513;-79
2022/11/19 05:38:21;;;;;;;4.20;2.80;;;;;;;8.33;100.00;93990.88;5055275;28;20614;-77
2022/11/19 05:40:47;;;;;;;4.90;2.72;;;;;;;8.42;100.00;93991.59;5048709;28;20212;-77
2022/11/19 05:43:14;;;;;;;4.53;2.92;;;;;;;8.46;100.00;94005.22;5048786;28;20207;-77
2022/11/19 05:45:41;;;;;;;3.65;1.95;;;;;;;8.57;100.00;94001.00;5048553;28;20211;-77
2022/11/19 05:48:09;;;;;;;5.18;2.63;;;;;;;8.54;100.00;94015.13;5048847;28;20231;-77
2022/11/19 05:50:36;;;;;;;7.05;2.75;;;;;;;8.64;100.00;94005.84;5057164;28;20199;-77
2022/11/19 05:53:04;;;;;;;2.90;2.03;;;;;;;8.83;100.00;94019.66;5068783;28;20202;-77
2022/11/19 05:55:31;;;;;;;3.10;2.30;;;;;;;8.94;100.00;94020.03;5070461;28;20539;-77
2022/11/19 05:57:57;;;;;;;5.10;2.95;;;;;;;9.00;100.00;94018.72;5072985;28;20348;-77
2022/11/19 06:00:24;;;;;;;3.65;2.13;;;;;;;8.98;100.00;94013.66;5073028;28;20256;-77
2022/11/19 06:02:51;;;;;;;3.00;1.70;;;;;;;9.00;100.00;94006.03;5072378;28;20591;-77
2022/11/19 06:05:19;;;;;;;5.18;2.88;;;;;;;8.83;100.00;94009.66;5072646;28;20207;-77
2022/11/19 06:07:46;;;;;;;3.38;2.40;;;;;;;8.52;100.00;94020.88;5055770;28;20677;-76
2022/11/19 06:10:12;;;;;;;7.30;3.63;;;;;;;8.37;100.00;94024.16;5052111;28;20208;-77
2022/11/19 06:12:39;;;;;;;4.22;2.67;;;;;;;8.57;100.00;94036.09;5051911;28;20219;-78
2022/11/19 06:15:07;;;;;;;4.65;3.17;;;;;;;8.65;100.00;94037.13;5052190;28;20208;-78
2022/11/19 06:17:34;;;;;;;7.03;3.85;;;;;;;8.68;100.00;94045.38;5052666;28;20409;-76
2022/11/19 06:20:00;;;;;;;4.40;2.55;;;;;;;8.76;100.00;94055.28;5051718;28;20748;-75
2022/11/19 06:22:29;;;;;;;5.97;3.65;;;;;;;8.82;100.00;94062.09;5054062;28;20206;-77
2022/11/19 06:24:55;;;;;;;5.63;3.40;;;;;;;8.96;100.00;94069.13;5061214;28;20204;-76
2022/11/19 06:27:22;;;;;;;10.75;3.38;;;;;;;8.97;100.00;94079.59;5051259;28;20231;-76
2022/11/19 06:29:49;;;;;;;5.03;3.00;;;;;;;9.03;100.00;94089.06;5052126;28;20253;-77
2022/11/19 06:32:16;;;;;;;8.05;3.70;;;;;;;9.08;100.00;94094.28;5050794;28;20235;-78
2022/11/19 06:34:43;;;;;;;4.05;2.83;;;;;;;9.04;100.00;94084.47;5051443;28;20211;-76
2022/11/19 06:37:09;;;;;;;6.32;3.95;;;;;;;9.25;100.00;94091.44;5050914;28;20203;-76
2022/11/19 06:39:37;;;;;;;7.20;3.72;;;;;;;9.47;100.00;94092.19;5050751;28;20257;-75
2022/11/19 06:44:45;;;;;;;6.45;3.83;;;;;;;9.69;100.00;94110.75;5050631;28;20704;-77
2022/11/19 06:47:11;;;;;;;5.68;2.97;;;;;;;9.72;100.00;94109.25;5051383;28;20238;-77
2022/11/19 06:49:38;;;;;;;8.88;4.70;;;;;;;9.64;100.00;94108.22;5051133;28;20203;-76
2022/11/19 06:52:05;;;;;;;8.63;4.05;;;;;;;9.67;100.00;94112.97;5050880;28;20480;-76
2022/11/19 06:54:32;;;;;;;4.28;3.40;;;;;;;9.65;100.00;94125.25;5064287;28;20202;-77
2022/11/19 06:57:00;;;;;;;7.20;3.70;;;;;;;9.82;100.00;94117.75;5050750;28;20204;-77
2022/11/19 06:59:28;;;;;;;5.70;2.88;;;;;;;9.89;100.00;94114.47;5051229;28;20208;-79
2022/11/19 07:01:54;;;;;;;5.05;2.83;;;;;;;9.88;100.00;94108.28;5050715;28;20215;-77
2022/11/19 07:04:21;;;;;;;6.97;3.67;;;;;;;9.93;100.00;94121.59;5051221;28;20211;-75
2022/11/19 07:06:48;;;;;;;27.80;14.35;;;;;;;9.90;100.00;94111.44;5051011;28;20200;-78
2022/11/19 07:09:15;;;;;;;11.00;5.53;;;;;;;9.87;100.00;94127.53;5050251;28;20258;-78
2022/11/19 07:11:41;;;;;;;6.40;3.60;;;;;;;9.70;100.00;94136.66;5050671;28;20294;-78
2022/11/19 07:14:10;;;;;;;8.07;4.97;;;;;;;9.82;100.00;94131.28;5064111;28;20210;-78
2022/11/19 07:16:37;;;;;;;9.80;4.82;;;;;;;9.95;100.00;94124.75;5050195;28;20211;-78
2022/11/19 07:19:05;;;;;;;10.52;4.85;;;;;;;10.11;100.00;94129.53;5051826;28;20261;-77
2022/11/19 07:21:33;;;;;;;16.58;5.85;;;;;;;9.91;100.00;94128.47;5061058;28;20214;-77
2022/11/19 07:24:01;;;;;;;10.75;5.57;;;;;;;10.04;100.00;94129.28;5050148;28;20605;-76
2022/11/19 07:26:28;;;;;;;13.68;6.43;;;;;;;10.19;100.00;94117.81;5050228;28;20289;-75
2022/11/19 07:28:55;;;;;;;14.88;7.30;;;;;;;10.39;100.00;94110.75;5050520;28;20235;-76
2022/11/19 07:31:28;;;;;;;15.80;6.75;;;;;;;10.45;100.00;94114.78;5050519;28;20238;-76
2022/11/19 07:33:55;;;;;;;14.65;7.35;;;;;;;10.47;100.00;94124.16;5050324;28;20204;-77
2022/11/19 07:36:22;;;;;;;14.05;7.38;;;;;;;10.58;100.00;94117.16;5060948;28;20205;-77
2022/11/19 07:38:51;;;;;;;11.93;7.05;;;;;;;10.78;100.00;94117.38;5069888;28;20304;-77
2022/11/19 07:44:02;;;;;;;7.35;4.53;;;;;;;11.16;100.00;94128.56;5069884;28;20206;-77
2022/11/19 07:46:30;;;;;;;6.90;3.95;;;;;;;11.25;100.00;94131.94;5070197;28;20207;-76
2022/11/19 07:48:58;;;;;;;6.88;4.28;;;;;;;11.33;100.00;94132.94;5061562;28;20284;-76
2022/11/19 07:51:25;;;;;;;9.25;5.50;;;;;;;11.39;99.88;94126.91;5050385;28;20207;-77
2022/11/19 07:53:52;;;;;;;12.43;5.28;;;;;;;11.59;100.00;94118.94;5050194;28;20212;-77
2022/11/19 07:56:20;;;;;;;6.00;4.10;;;;;;;11.83;99.75;94129.69;5050022;28;20210;-76
2022/11/19 07:58:47;;;;;;;12.85;5.32;;;;;;;11.90;98.60;94129.88;5049667;28;20207;-77
2022/11/19 08:01:17;;;;;;;6.03;3.83;;;;;;;11.93;97.82;94134.59;5049548;28;20207;-77
2022/11/19 08:03:46;;;;;;;8.27;5.18;;;;;;;12.03;98.18;94123.22;5049386;28;20298;-75
2022/11/19 08:06:14;;;;;;;15.48;4.97;;;;;;;12.20;98.22;94138.41;5052848;28;20214;-76
2022/11/19 08:08:41;;;;;;;10.43;4.95;;;;;;;12.38;96.39;94145.06;5059337;28;20262;-77
2022/11/19 08:11:12;;;;;;;4.60;2.90;;;;;;;12.46;95.67;94146.81;5062952;28;20650;-78
2022/11/19 08:13:40;;;;;;;7.68;3.65;;;;;;;12.68;95.95;94142.69;5060518;28;20261;-74
2022/11/19 08:16:09;;;;;;;5.43;3.08;;;;;;;12.73;95.18;94145.13;5052041;28;20271;-75
2022/11/19 08:18:35;;;;;;;6.63;3.40;;;;;;;12.65;93.84;94137.97;5059514;28;20264;-76
2022/11/19 08:21:08;;;;;;;9.32;4.63;;;;;;;12.75;96.07;94152.94;5051493;28;20281;-76
2022/11/19 08:23:35;;;;;;;6.07;3.60;;;;;;;12.78;95.50;94161.19;5049232;28;20202;-75
2022/11/19 08:26:03;;;;;;;6.43;3.97;;;;;;;12.82;93.92;94159.34;5049477;28;20227;-74
2022/11/19 08:28:30;;;;;;;4.35;2.80;;;;;;;12.62;91.82;94154.16;5049059;28;20227;-76
2022/11/19 08:30:57;;;;;;;5.60;3.25;;;;;;;12.77;93.41;94150.66;5049247;28;20214;-77
2022/11/19 08:33:24;;;;;;;8.45;5.10;;;;;;;13.01;94.29;94160.53;5048585;28;20243;-76
2022/11/19 08:35:54;;;;;;;8.02;5.40;;;;;;;12.94;93.15;94161.16;5049642;28;20200;-76
2022/11/19 08:38:23;;;;;;;5.75;4.18;;;;;;;12.95;91.41;94161.94;5049354;28;20291;-76
2022/11/19 08:40:52;;;;;;;8.60;5.78;;;;;;;13.22;93.47;94163.75;5049034;28;20203;-75
2022/11/19 08:43:18;;;;;;;15.27;8.63;;;;;;;13.14;92.54;94159.25;5049461;28;20666;-76
2022/11/19 08:45:53;;;;;;;9.93;5.82;;;;;;;13.38;92.27;94153.63;5061324;28;20206;-75
2022/11/19 08:48:20;;;;;;;10.02;6.53;;;;;;;13.70;90.71;94156.97;5048633;28;20215;-74
2022/11/19 08:50:47;;;;;;;8.25;5.50;;;;;;;13.69;91.05;94154.63;5058016;28;20211;-75
2022/11/19 08:53:13;;;;;;;10.90;6.13;;;;;;;13.73;88.77;94141.88;5069243;28;20203;-75
2022/11/19 08:55:42;;;;;;;8.85;4.45;;;;;;;14.02;89.00;94154.88;5059419;28;20559;-75
2022/11/19 08:58:10;;;;;;;6.70;3.70;;;;;;;14.01;87.49;94150.59;5048967;28;20212;-76
2022/11/19 09:00:38;;;;;;;5.85;3.85;;;;;;;14.14;86.39;94162.91;5048116;28;20215;-76
2022/11/19 09:03:04;;;;;;;9.80;4.72;;;;;;;14.45;86.23;94158.41;5047977;28;20200;-75
2022/11/19 09:05:31;;;;;;;5.65;4.05;;;;;;;14.66;85.17;94161.50;5047790;28;20207;-75
2022/11/19 09:07:58;;;;;;;6.50;3.78;;;;;;;14.64;83.61;94171.19;5061217;28;20295;-74
2022/11/19 09:10:25;;;;;;;5.20;3.65;;;;;;;14.74;82.32;94174.09;5048706;28;20204;-74
2022/11/19 09:12:53;;;;;;;4.63;3.40;;;;;;;14.90;81.59;94166.56;5061245;28;20207;-73
2022/11/19 09:15:21;;;;;;;4.38;3.20;;;;;;;14.73;80.22;94171.75;5048169;28;20199;-74
2022/11/19 09:17:47;;;;;;;5.95;3.28;;;;;;;14.61;83.17;94175.44;5048791;28;20241;-76
2022/11/19 09:20:14;;;;;;;4.30;2.42;;;;;;;15.03;82.34;94182.75;5047131;28;20617;-76
2022/11/19 09:22:41;;;;;;;2.30;2.00;;;;;;;15.06;79.59;94174.59;5048303;28;20654;-74
2022/11/19 09:25:08;;;;;;;3.03;2.00;;;;;;;14.83;79.19;94171.91;5047799;28;21093;-72
2022/11/19 09:27:36;;;;;;;1.85;1.48;;;;;;;14.89;78.13;94175.91;5047985;28;20298;-76
2022/11/19 09:30:05;;;;;;;2.25;1.50;;;;;;;14.89;78.89;94164.22;5049238;28;20701;-75
2022/11/19 09:32:32;;;;;;;3.03;1.88;;;;;;;14.92;79.01;94150.59;5058213;28;20709;-74
2022/11/19 09:34:59;;;;;;;1.80;1.60;;;;;;;15.16;79.74;94154.09;5060182;28;20454;-75
2022/11/19 09:37:30;;;;;;;1.10;1.00;;;;;;;15.37;76.24;94146.19;5058489;28;20308;-77
2022/11/19 09:39:57;;;;;;;1.88;1.20;;;;;;;15.45;74.87;94136.94;5059263;28;20273;-78
2022/11/19 09:42:31;;;;;;;4.20;1.60;;;;;;;15.31;74.83;94146.91;5053051;28;20203;-77
2022/11/19 09:45:09;;;;;;;1.73;1.63;;;;;;;15.30;74.35;94129.75;5052232;28;20191;-76
2022/11/19 09:47:51;;;;;;;1.67;1.33;;;;;;;15.21;74.63;94134.66;5062444;28;20210;-82
2022/11/19 09:50:22;;;;;;;1.90;1.40;;;;;;;15.18;75.31;94132.66;5060051;28;20461;-80
2022/11/19 09:52:54;;;;;;;3.85;2.05;;;;;;;15.23;74.68;94102.34;5063204;28;20557;-78
2022/11/19 09:55:26;;;;;;;4.32;2.50;;;;;;;15.09;75.53;94107.59;5057863;28;20596;-80
2022/11/19 09:57:56;;;;;;;3.83;2.95;;;;;;;15.01;76.62;94101.28;5059275;28;20194;-79
2022/11/19 10:00:27;;;;;;;4.90;2.20;;;;;;;15.01;75.27;94105.94;5056822;28;20582;-79
2022/11/19 10:02:56;;;;;;;4.97;2.10;;;;;;;15.10;75.74;94109.19;5059704;28;20249;-77
2022/11/19 10:05:29;;;;;;;3.55;2.58;;;;;;;15.14;76.12;94094.44;5052777;28;20195;-78
2022/11/19 10:08:08;;;;;;;4.95;2.55;;;;;;;15.47;77.15;94095.63;5065568;28;20671;-76
2022/11/19 10:10:41;;;;;;;15.10;8.82;;;;;;;15.92;75.63;94081.75;5052016;28;20219;-79
2022/11/19 10:13:33;;;;;;;3.38;1.77;;;;;;;16.31;73.13;94079.38;5059229;28;20200;-77
2022/11/19 10:16:16;;;;;;;4.65;1.65;;;;;;;15.70;72.87;94060.06;5067394;28;20258;-78
2022/11/19 10:18:55;;;;;;;2.85;2.00;;;;;;;15.85;74.26;94072.72;5063958;28;20516;-77
2022/11/19 10:21:28;;;;;;;3.97;1.80;;;;;;;16.40;73.36;94075.56;5051924;28;20650;-80
2022/11/19 10:24:04;;;;;;;4.20;2.13;;;;;;;16.51;70.53;94077.22;5051191;28;20195;-78
2022/11/19 10:26:35;;;;;;;4.80;2.10;;;;;;;16.24;72.25;94084.03;5052103;28;20227;-78
2022/11/19 10:29:04;;;;;;;3.10;2.25;;;;;;;16.64;71.55;94088.69;5051370;28;20231;-78
2022/11/19 10:31:36;;;;;;;3.33;2.05;;;;;;;16.77;70.37;94087.22;5052010;28;20207;-78
2022/11/19 10:34:10;;;;;;;2.65;1.77;;;;;;;16.88;69.37;94077.13;5051987;28;20477;-79
2022/11/19 10:36:42;;;;;;;2.88;2.10;;;;;;;17.24;67.97;94069.13;5051389;28;20206;-78
2022/11/19 10:39:18;;;;;;;3.88;1.55;;;;;;;16.92;68.47;94074.44;5051071;28;20245;-79
2022/11/19 10:41:50;;;;;;;4.10;1.70;;;;;;;16.55;68.54;94066.28;5051294;28;20207;-78
2022/11/19 10:44:42;;;;;;;5.55;1.70;;;;;;;16.61;70.57;94064.78;5051148;28;20671;-78
2022/11/19 10:47:16;;;;;;;2.72;1.92;;;;;;;16.91;68.46;94061.91;5050887;28;20211;-78
2022/11/19 10:49:44;;;;;;;2.95;1.90;;;;;;;16.64;68.86;94050.41;5051664;28;20215;-79
2022/11/19 10:52:26;;;;;;;3.45;2.13;;;;;;;16.80;68.99;94059.13;5051627;28;20682;-78
2022/11/19 10:54:57;;;;;;;3.60;2.08;;;;;;;16.74;69.01;94057.09;5051510;28;20215;-81
2022/11/19 10:57:25;;;;;;;4.68;1.80;;;;;;;16.40;68.83;94042.78;5062224;28;20228;-78
2022/11/19 10:59:54;;;;;;;2.53;1.40;;;;;;;16.20;68.52;94051.19;5054168;28;20207;-78
2022/11/19 11:02:30;;;;;;;5.53;2.95;;;;;;;16.55;72.24;94055.34;5051926;28;20277;-75
2022/11/19 11:05:04;;;;;;;3.35;2.08;;;;;;;16.10;69.95;94043.69;5051796;28;20570;-74
2022/11/19 11:07:52;;;;;;;3.40;2.63;;;;;;;16.39;70.18;94052.13;5051624;28;20269;-74
2022/11/19 11:10:32;;;;;;;3.20;1.92;;;;;;;16.60;69.58;94057.75;5051655;28;20228;-79
2022/11/19 11:15:52;;;;;;;3.58;2.05;;;;;;;17.01;69.04;94034.59;5051672;28;20210;-77
2022/11/19 11:18:26;;;;;;;2.03;1.73;;;;;;;17.23;66.47;94035.50;5050650;28;20233;-78
2022/11/19 11:20:53;;;;;;;6.10;2.15;;;;;;;16.97;66.62;94033.78;5051541;28;20203;-78
2022/11/19 11:23:24;;;;;;;7.20;2.35;;;;;;;17.08;66.38;94038.56;5052045;28;20250;-78
2022/11/19 11:25:54;;;;;;;4.57;2.08;;;;;;;16.80;67.27;94045.44;5051145;28;20274;-78
2022/11/19 11:28:24;;;;;;;2.90;1.83;;;;;;;16.83;68.51;94036.44;5051144;28;20257;-77
2022/11/19 11:30:56;;;;;;;2.50;1.90;;;;;;;16.81;68.15;94038.78;5051068;28;20231;-79
2022/11/19 11:33:32;;;;;;;2.60;1.95;;;;;;;17.03;67.79;94037.75;5050670;28;20269;-77
2022/11/19 11:36:02;;;;;;;4.00;2.78;;;;;;;16.70;69.03;94032.44;5051147;28;20203;-78
2022/11/19 11:38:30;;;;;;;3.58;2.25;;;;;;;16.74;70.05;94016.84;5050861;28;20269;-78
2022/11/19 11:41:04;;;;;;;5.88;2.30;;;;;;;17.02;69.32;94019.75;5050858;28;20257;-77
2022/11/19 11:43:32;;;;;;;3.35;2.22;;;;;;;17.36;68.38;94011.28;5050985;28;20712;-78
2022/11/19 11:46:02;;;;;;;6.15;2.45;;;;;;;17.55;67.15;94008.25;5050822;28;20655;-77
2022/11/19 11:48:37;;;;;;;4.00;2.05;;;;;;;17.53;67.33;94023.50;5050327;28;20204;-77
2022/11/19 11:51:04;;;;;;;3.83;2.13;;;;;;;17.84;66.74;94019.31;5050248;28;20531;-77
2022/11/19 11:53:33;;;;;;;4.10;2.65;;;;;;;17.70;67.06;94023.56;5049070;28;20211;-78
2022/11/19 11:56:02;;;;;;;3.60;1.90;;;;;;;17.78;66.17;94021.63;5050073;28;20204;-78
2022/11/19 11:58:30;;;;;;;3.67;2.25;;;;;;;17.47;66.76;94023.09;5050013;28;20659;-78
2022/11/19 12:01:11;;;;;;;2.65;2.00;;;;;;;17.40;67.57;94012.88;5050859;28;20527;-77
2022/11/19 12:03:52;;;;;;;2.58;1.85;;;;;;;17.71;66.91;94011.44;5050381;28;20603;-78
2022/11/19 12:06:21;;;;;;;4.70;2.13;;;;;;;17.50;66.74;94011.34;5050112;28;20612;-77
2022/11/19 12:08:58;;;;;;;2.95;1.88;;;;;;;17.79;66.81;94014.19;5050249;28;20640;-77